Wetter In Nordholz

Small Tits Teen Webcam Micaela Schäfer Fun Dorado Micaela Schäfer will niemals heiraten. Das Model ist seit einigen Monaten mit dem Berliner Restaurantbesitzer Adriano Hess. Auf den ersten Blick mag es nicht erkennbar sein, doch der Penis von Sänger Ennesto Monté (45) und die Nase von. Hidden Camera Masturbation Video Disclaimer: TubeGold.xxx nicht besitzen produzieren oder verkaufen masturbation versteckte
Micaela Schäfer Nackt Film Micaela Schäfer Fun Dorado Micaela Schäfer will niemals heiraten. Das Model ist seit einigen Monaten mit dem Berliner Restaurantbesitzer Adriano Hess. Auf den ersten Blick mag es nicht erkennbar sein, doch der Penis von Sänger Ennesto Monté (45) und die Nase von. Hidden Camera Masturbation Video Disclaimer: TubeGold.xxx nicht besitzen produzieren oder verkaufen masturbation versteckte

wetter nordholz 16 tage

wetter nordholz wurster nordseeküste

14-Tage-Wetter. Nordholz Mi, 10.06. Do, 11.06. Fr, 12.06. Sa, 13.06. So, 14.06. Mo, 15.06. Di, 16.06. Mi, 17.06. Do, 18.06. Fr, 19.06. Sa, 20.06. So, 21.06. Mo, 22.06. Di, 23.06.

Das Wetter am Wochenende in Nordholz, Niedersachsen Aktuelle Wettervorhersage Nordholz für Samstag & Sonntag Regenradar & Unwetter – wetter.de ☀

Das Wetter in 27639 Nordholz. Finden Sie bei wetter.com die aktuelle Wettervorhersage für heute und die nächsten 7 Tage inkl. Temperatur, Wetterzustand und Regenwahrscheinlichkeit.

Oldenburg (dpa/lni) – Die alljährliche Zählung der Seehunde aus der Luft hat am Montag an der niedersächsischen Nordseeküste.

Wetter. Link zur aktuellen Windanzeige. Nordholz: METAR: 2020/06/13 15:20 ETMN 131520Z 08013KT 9999 FEW020 BKN320 22/17 Q1011 BLU+ TAF: 2020/06/12 11:32 TAF ETMN 121010Z 1211/1220 12008KT 9999 NSW BKN010 BECMG 1211/1212 13010KT 9999 NSW SCT012 BKN015 PROB30 1214/1220 13012KT 9999 NSW SCT015 BKN030 Wind EDXN: 13.06. 14:40z 060/15G24kt 13.06.

Aktuelle Wettervorhersage für 14 Tage in Nordholz, Niedersachsen stundengenau & aktuell Wetter Nordholz für die nächsten 2 Wochen – wetter.de ☀

Oldenburg (dpa/lni) – Die alljährliche Zählung der Seehunde aus der Luft hat am Montag an der niedersächsischen Nordseeküste.

Oldenburg (dpa/lni) – Die alljährliche Zählung der Seehunde aus der Luft hat am Montag an der niedersächsischen Nordseeküste.

Real Live Cam Videos RealLifeCam – Voyeur Videos, Hidden Cam, Real Life 174; Nudesportvideos.com 441; DVD 4K 40; Metartvip.com–Videos 4401; Recording girls camsex video 281; Toilet top view HCK 2666; FTVGirls.com 694; FuckedHard18.com 134; Pisshunters_org 914; Voyeur-House TV 9140; Asian Girls takefile jav-video 9; Penza teens 161; Pisswc_com 563; Got2pee – Peeing. Voyeur real, porn tube – videos.aPornStories.com –

Aktuelles Wetter Nordholz Aktuelle Wettervorhersage stundengenau für heute & die nächsten 3 Tage Regenradar, Unwettervorhersage & Wetterbericht Nordholz ☀

Wetter Nordholz | wetter.com – Das Wetter in Nordholz 14.06.2020 In Nordholz kann es vormittags und auch am Nachmittag vereinzelt zu Regen kommen und die Temperaturen liegen zwischen 15 und 20°C. Abends bleibt in Nordholz die Wolkendecke geschlossen bei Temperaturen von 17 bis 19°C.

Wetter. Link zur aktuellen Windanzeige. Nordholz: METAR: 2020/06/13 15:20 ETMN 131520Z 08013KT 9999 FEW020 BKN320 22/17 Q1011 BLU+ TAF: 2020/06/12 11:32 TAF ETMN 121010Z 1211/1220 12008KT 9999 NSW BKN010 BECMG 1211/1212 13010KT 9999 NSW SCT012 BKN015 PROB30 1214/1220 13012KT 9999 NSW SCT015 BKN030 Wind EDXN: 13.06. 14:40z 060/15G24kt 13.06.

Wetter Nordholz (Bückeburg) Das 14-Tage-Wetter für die Region Nordholz (Bückeburg) mit den weiteren Wetteraussichten zu Sonne, Niederschlag, Wind, und Temperaturen.

Wetter. Link zur aktuellen Windanzeige. Nordholz: METAR: 2020/06/13 15:20 ETMN 131520Z 08013KT 9999 FEW020 BKN320 22/17 Q1011 BLU+ TAF: 2020/06/12 11:32 TAF ETMN 121010Z 1211/1220 12008KT 9999 NSW BKN010 BECMG 1211/1212 13010KT 9999 NSW SCT012 BKN015 PROB30 1214/1220 13012KT 9999 NSW SCT015 BKN030 Wind EDXN: 13.06. 14:40z 060/15G24kt 13.06.

Wetter Nordholz bei Bremerhaven für 10 Tage – Wetter für.

– Das Wetter für Nordholz, der Wetterbericht sowie die 9-Tages Wetter für den Kreis Cuxhaven. So wird das Wetter in Nordholz in Niedersachsen.

Wetter. Link zur aktuellen Windanzeige. Nordholz: METAR: 2020/06/13 15:20 ETMN 131520Z 08013KT 9999 FEW020 BKN320 22/17 Q1011 BLU+ TAF: 2020/06/12 11:32 TAF ETMN 121010Z 1211/1220 12008KT 9999 NSW BKN010 BECMG 1211/1212 13010KT 9999 NSW SCT012 BKN015 PROB30 1214/1220 13012KT 9999 NSW SCT015 BKN030 Wind EDXN: 13.06. 14:40z 060/15G24kt 13.06.

Webcam Laboe Ostsee Teen Playing On Webcam Free teens world tube – teen girls porn tube with free porn clips. Young cute girls, juicy 18 y.o. teens, hot crazy teen sex, first time fucking, hotest sexy teens, young wet pussies, public teen sex, teen blowjob, free teen porn videos – only at freeteensworld.net Munchen Live Cam Diese Webseite

Wetter. Link zur aktuellen Windanzeige. Nordholz: METAR: 2020/06/13 15:20 ETMN 131520Z 08013KT 9999 FEW020 BKN320 22/17 Q1011 BLU+ TAF: 2020/06/12 11:32 TAF ETMN 121010Z 1211/1220 12008KT 9999 NSW BKN010 BECMG 1211/1212 13010KT 9999 NSW SCT012 BKN015 PROB30 1214/1220 13012KT 9999 NSW SCT015 BKN030 Wind EDXN: 13.06. 14:40z 060/15G24kt 13.06.

Oldenburg (dpa/lni) – Die alljährliche Zählung der Seehunde aus der Luft hat am Montag an der niedersächsischen Nordseeküste.